Time;durP1;ratioP1;P1;durP2;ratioP2;P2;SDS_P1;SDS_P2;PMS_P1;PMS_P2;Temp;Humidity;BMP_temperature;BMP_pressure;BME280_temperature;BME280_humidity;BME280_pressure;Samples;Min_cycle;Max_cycle;Signal;HPM_P1;HPM_P2
2022/09/28 00:01:36;;;;;;;7.70;5.60;;;;;;;;;;106508;1297;33338;-34
2022/09/28 00:04:06;;;;;;;8.20;5.40;;;;;;;;;;106636;1295;33708;-32
2022/09/28 00:06:35;;;;;;;8.80;5.60;;;;;;;;;;106496;1298;33767;-34
2022/09/28 00:09:05;;;;;;;8.20;5.60;;;;;;;;;;106500;1292;33500;-33
2022/09/28 00:11:34;;;;;;;8.60;6.20;;;;;;;;;;106509;1298;33891;-33
2022/09/28 00:14:06;;;;;;;9.60;6.40;;;;;;;;;;106526;1296;34027;-34
2022/09/28 00:16:38;;;;;;;8.80;6.40;;;;;;;;;;106577;1295;33828;-33
2022/09/28 00:19:09;;;;;;;8.10;5.90;;;;;;;;;;106658;1296;33482;-33
2022/09/28 00:21:39;;;;;;;7.70;6.10;;;;;;;;;;106652;1295;33434;-31
2022/09/28 00:24:15;;;;;;;8.50;6.00;;;;;;;;;;106683;1295;33868;-34
2022/09/28 00:26:45;;;;;;;8.20;5.50;;;;;;;;;;106519;1300;33512;-34
2022/09/28 00:29:17;;;;;;;7.70;5.60;;;;;;;;;;106533;1296;33936;-34
2022/09/28 00:31:47;;;;;;;8.50;6.00;;;;;;;;;;106539;1297;33967;-34
2022/09/28 00:34:16;;;;;;;7.70;5.50;;;;;;;;;;106532;1298;33880;-34
2022/09/28 00:36:47;;;;;;;8.00;5.80;;;;;;;;;;106590;1301;34003;-34
2022/09/28 00:39:16;;;;;;;8.10;6.20;;;;;;;;;;106673;1298;33146;-34
2022/09/28 00:41:45;;;;;;;7.50;5.40;;;;;;;;;;106659;1295;33854;-33
2022/09/28 00:44:39;;;;;;;6.90;5.40;;;;;;;;;;106692;1295;33242;-34
2022/09/28 00:47:32;;;;;;;7.20;5.30;;;;;;;;;;106535;1297;33783;-33
2022/09/28 00:50:02;;;;;;;8.00;5.50;;;;;;;;;;106541;1300;33146;-33
2022/09/28 00:52:35;;;;;;;7.80;5.30;;;;;;;;;;106511;1296;34391;-35
2022/09/28 00:55:06;;;;;;;7.30;5.20;;;;;;;;;;106537;1298;34030;-33
2022/09/28 00:57:36;;;;;;;6.50;4.90;;;;;;;;;;106613;1298;33807;-33
2022/09/28 01:00:07;;;;;;;7.30;5.10;;;;;;;;;;106675;1295;32348;-33
2022/09/28 01:02:36;;;;;;;6.40;5.20;;;;;;;;;;106692;1300;33111;-33
2022/09/28 01:05:07;;;;;;;5.90;4.30;;;;;;;;;;106664;1297;33813;-33
2022/09/28 01:07:36;;;;;;;6.00;4.60;;;;;;;;;;106547;1301;33831;-33
2022/09/28 01:10:09;;;;;;;6.40;4.40;;;;;;;;;;106467;1296;33946;-33
2022/09/28 01:12:38;;;;;;;7.60;4.80;;;;;;;;;;106551;1301;33643;-33
2022/09/28 01:15:09;;;;;;;6.90;4.60;;;;;;;;;;106521;1303;33047;-33
2022/09/28 01:17:43;;;;;;;5.90;4.40;;;;;;;;;;106537;1298;34001;-33
2022/09/28 01:20:27;;;;;;;6.40;4.40;;;;;;;;;;106692;1295;33995;-33
2022/09/28 01:23:11;;;;;;;5.20;4.10;;;;;;;;;;106531;1298;34221;-33
2022/09/28 01:25:43;;;;;;;5.70;4.00;;;;;;;;;;106533;1297;33876;-33
2022/09/28 01:28:13;;;;;;;6.20;3.70;;;;;;;;;;106524;1298;33892;-33
2022/09/28 01:30:46;;;;;;;5.90;4.70;;;;;;;;;;106551;1296;33899;-34
2022/09/28 01:33:19;;;;;;;6.00;4.20;;;;;;;;;;106539;1297;34216;-34
2022/09/28 01:35:52;;;;;;;5.60;4.00;;;;;;;;;;106547;1300;33383;-34
2022/09/28 01:38:22;;;;;;;5.60;4.00;;;;;;;;;;106557;1299;33493;-34
2022/09/28 01:40:52;;;;;;;6.20;3.90;;;;;;;;;;106655;1299;33063;-34
2022/09/28 01:43:24;;;;;;;6.50;4.10;;;;;;;;;;106640;1295;34341;-33
2022/09/28 01:45:56;;;;;;;5.20;3.50;;;;;;;;;;106630;1295;33859;-34
2022/09/28 01:48:30;;;;;;;5.50;3.90;;;;;;;;;;106517;1295;33836;-34
2022/09/28 01:51:00;;;;;;;5.80;4.00;;;;;;;;;;106549;1298;33432;-33
2022/09/28 01:53:32;;;;;;;5.10;3.30;;;;;;;;;;106533;1298;33567;-33
2022/09/28 01:56:04;;;;;;;5.40;3.70;;;;;;;;;;106518;1296;33863;-34
2022/09/28 01:58:38;;;;;;;5.50;3.50;;;;;;;;;;106555;1298;33877;-33
2022/09/28 02:01:12;;;;;;;5.90;3.60;;;;;;;;;;106626;1292;33325;-34
2022/09/28 02:03:45;;;;;;;6.00;3.80;;;;;;;;;;106642;1299;34224;-34
2022/09/28 02:06:16;;;;;;;5.90;3.80;;;;;;;;;;106521;1299;33077;-34
2022/09/28 02:08:47;;;;;;;5.70;3.50;;;;;;;;;;106524;1300;33748;-34
2022/09/28 02:11:18;;;;;;;5.80;3.50;;;;;;;;;;106520;1296;33959;-34
2022/09/28 02:13:49;;;;;;;5.10;3.40;;;;;;;;;;106517;1296;33933;-33
2022/09/28 02:16:21;;;;;;;5.80;3.50;;;;;;;;;;106523;1300;33541;-34
2022/09/28 02:18:50;;;;;;;5.60;3.50;;;;;;;;;;106540;1295;34267;-33
2022/09/28 02:21:23;;;;;;;5.20;3.20;;;;;;;;;;106616;1296;33828;-34
2022/09/28 02:23:56;;;;;;;5.20;3.20;;;;;;;;;;106630;1299;33127;-33
2022/09/28 02:26:23;;;;;;;;;;;;;;;;;;106652;1295;34408;-34
2022/09/28 02:28:52;;;;;;;6.10;3.40;;;;;;;;;;106527;1295;33803;-33
2022/09/28 02:31:21;;;;;;;5.30;3.20;;;;;;;;;;106545;1299;33539;-34
2022/09/28 02:33:51;;;;;;;4.90;3.20;;;;;;;;;;106514;1297;33773;-34
2022/09/28 02:36:21;;;;;;;5.00;3.20;;;;;;;;;;106475;1298;33904;-33
2022/09/28 02:38:50;;;;;;;5.20;3.30;;;;;;;;;;106505;1295;33980;-33
2022/09/28 02:41:31;;;;;;;5.30;3.00;;;;;;;;;;106595;1295;34295;-34
2022/09/28 02:44:07;;;;;;;5.00;3.20;;;;;;;;;;106628;1298;33606;-34
2022/09/28 02:46:42;;;;;;;5.10;3.00;;;;;;;;;;106637;1301;33444;-34
2022/09/28 02:49:18;;;;;;;4.80;3.00;;;;;;;;;;106509;1296;33517;-34
2022/09/28 02:51:53;;;;;;;4.90;3.10;;;;;;;;;;106526;1298;34238;-33
2022/09/28 02:54:29;;;;;;;4.50;2.80;;;;;;;;;;106528;1298;33806;-34
2022/09/28 02:57:07;;;;;;;4.50;2.90;;;;;;;;;;106561;1298;33661;-34
2022/09/28 02:59:42;;;;;;;4.70;2.90;;;;;;;;;;106565;1295;33255;-34
2022/09/28 03:02:17;;;;;;;5.40;3.20;;;;;;;;;;106681;1295;33837;-34
2022/09/28 03:04:51;;;;;;;4.20;2.70;;;;;;;;;;106718;1299;33444;-34
2022/09/28 03:07:24;;;;;;;4.80;2.70;;;;;;;;;;106719;1298;33443;-34
2022/09/28 03:09:56;;;;;;;5.20;2.80;;;;;;;;;;106562;1295;33717;-34
2022/09/28 03:12:28;;;;;;;4.50;2.70;;;;;;;;;;106554;1298;33207;-33
2022/09/28 03:15:07;;;;;;;5.00;2.80;;;;;;;;;;106523;1303;33720;-34
2022/09/28 03:17:36;;;;;;;4.80;2.50;;;;;;;;;;106517;1298;33331;-34
2022/09/28 03:20:06;;;;;;;4.30;2.60;;;;;;;;;;106576;1295;34332;-33
2022/09/28 03:22:36;;;;;;;4.30;2.50;;;;;;;;;;106705;1295;33599;-33
2022/09/28 03:25:06;;;;;;;4.70;2.80;;;;;;;;;;106664;1295;34197;-34
2022/09/28 03:27:35;;;;;;;4.50;2.50;;;;;;;;;;106709;1300;33213;-34
2022/09/28 03:30:05;;;;;;;4.60;2.80;;;;;;;;;;106529;1295;34443;-34
2022/09/28 03:32:34;;;;;;;4.60;2.60;;;;;;;;;;106520;1298;33777;-34
2022/09/28 03:35:04;;;;;;;4.30;2.60;;;;;;;;;;106474;1298;33933;-34
2022/09/28 03:37:33;;;;;;;4.40;2.50;;;;;;;;;;106540;1296;33283;-34
2022/09/28 03:40:04;;;;;;;4.80;2.60;;;;;;;;;;106530;1295;33622;-34
2022/09/28 03:42:35;;;;;;;4.30;2.60;;;;;;;;;;106647;1295;34221;-34
2022/09/28 03:45:04;;;;;;;5.00;2.40;;;;;;;;;;106678;1299;33686;-34
2022/09/28 03:47:36;;;;;;;4.80;2.50;;;;;;;;;;106676;1299;33326;-34
2022/09/28 03:50:07;;;;;;;4.20;2.40;;;;;;;;;;106570;1300;33689;-33
2022/09/28 03:52:38;;;;;;;4.30;2.30;;;;;;;;;;106483;1296;33525;-34
2022/09/28 03:55:09;;;;;;;4.50;2.30;;;;;;;;;;106522;1296;33836;-34
2022/09/28 03:57:39;;;;;;;4.30;2.40;;;;;;;;;;106565;1296;33950;-34
2022/09/28 04:00:09;;;;;;;4.00;2.30;;;;;;;;;;106543;1296;34203;-34
2022/09/28 04:02:38;;;;;;;4.10;2.20;;;;;;;;;;106684;1295;33892;-34
2022/09/28 04:05:08;;;;;;;3.80;2.20;;;;;;;;;;106674;1300;33390;-34
2022/09/28 04:07:37;;;;;;;6.20;2.50;;;;;;;;;;106714;1295;33854;-34
2022/09/28 04:10:07;;;;;;;5.60;2.60;;;;;;;;;;106632;1295;33440;-34
2022/09/28 04:12:36;;;;;;;4.60;2.60;;;;;;;;;;106541;1297;34004;-34
2022/09/28 04:15:06;;;;;;;4.50;2.60;;;;;;;;;;106578;1297;33855;-33
2022/09/28 04:17:35;;;;;;;4.80;2.60;;;;;;;;;;106603;1297;33987;-33
2022/09/28 04:20:07;;;;;;;4.70;2.30;;;;;;;;;;106531;1298;33755;-32
2022/09/28 04:22:37;;;;;;;5.50;2.50;;;;;;;;;;106709;1296;33433;-34
2022/09/28 04:25:07;;;;;;;5.90;3.10;;;;;;;;;;106643;1300;33441;-33
2022/09/28 04:30:23;;;;;;;5.50;2.60;;;;;;;;;;106627;1295;33742;-33
2022/09/28 04:32:52;;;;;;;4.70;2.40;;;;;;;;;;106493;1301;33721;-34
2022/09/28 04:35:21;;;;;;;5.10;2.90;;;;;;;;;;106496;1298;34354;-34
2022/09/28 04:37:50;;;;;;;4.30;2.30;;;;;;;;;;106528;1298;33506;-34
2022/09/28 04:40:19;;;;;;;6.50;2.80;;;;;;;;;;106576;1298;32906;-33
2022/09/28 04:42:54;;;;;;;5.60;2.60;;;;;;;;;;106723;1295;33956;-33
2022/09/28 04:45:24;;;;;;;5.20;2.70;;;;;;;;;;106686;1299;33489;-33
2022/09/28 04:47:54;;;;;;;6.20;2.70;;;;;;;;;;106712;1296;34110;-34
2022/09/28 04:50:23;;;;;;;4.90;2.60;;;;;;;;;;106660;1298;33548;-33
2022/09/28 04:52:52;;;;;;;4.80;3.00;;;;;;;;;;106536;1298;40581;-34
2022/09/28 04:55:21;;;;;;;5.00;2.50;;;;;;;;;;106550;1300;33223;-35
2022/09/28 04:57:50;;;;;;;5.50;2.50;;;;;;;;;;106548;1298;34177;-35
2022/09/28 05:00:19;;;;;;;4.70;2.80;;;;;;;;;;106533;1298;33834;-35
2022/09/28 05:02:49;;;;;;;5.70;2.80;;;;;;;;;;106656;1300;33735;-35
2022/09/28 05:05:18;;;;;;;4.90;2.70;;;;;;;;;;106708;1295;33907;-32
2022/09/28 05:07:48;;;;;;;5.70;3.00;;;;;;;;;;106692;1299;33206;-32
2022/09/28 05:10:18;;;;;;;4.70;3.00;;;;;;;;;;106683;1300;33832;-32
2022/09/28 05:12:48;;;;;;;5.40;2.90;;;;;;;;;;106500;1298;33246;-32
2022/09/28 05:15:18;;;;;;;4.90;2.70;;;;;;;;;;106492;1297;33574;-33
2022/09/28 05:17:47;;;;;;;4.60;2.60;;;;;;;;;;106524;1298;33902;-33
2022/09/28 05:20:16;;;;;;;4.70;2.90;;;;;;;;;;106543;1298;33809;-36
2022/09/28 05:22:45;;;;;;;4.90;2.60;;;;;;;;;;106614;1303;33504;-36
2022/09/28 05:25:14;;;;;;;4.20;2.70;;;;;;;;;;106638;1300;33409;-37
2022/09/28 05:27:43;;;;;;;4.90;2.90;;;;;;;;;;106644;1295;33785;-36
2022/09/28 05:30:15;;;;;;;4.10;2.70;;;;;;;;;;106708;1295;33538;-36
2022/09/28 05:32:44;;;;;;;5.00;2.80;;;;;;;;;;106534;1295;34149;-36
2022/09/28 05:35:13;;;;;;;4.10;2.70;;;;;;;;;;106478;1299;33848;-35
2022/09/28 05:37:42;;;;;;;4.90;2.90;;;;;;;;;;106534;1298;34199;-35
2022/09/28 05:40:12;;;;;;;4.30;2.60;;;;;;;;;;106500;1301;32245;-36
2022/09/28 05:42:42;;;;;;;4.90;3.00;;;;;;;;;;106576;1298;33861;-37
2022/09/28 05:45:11;;;;;;;4.50;2.80;;;;;;;;;;106552;1296;33708;-36
2022/09/28 05:47:40;;;;;;;4.70;2.80;;;;;;;;;;106524;1296;34707;-36
2022/09/28 05:50:15;;;;;;;4.40;2.90;;;;;;;;;;106667;1295;33894;-32
2022/09/28 05:52:44;;;;;;;4.30;2.80;;;;;;;;;;106560;1300;34047;-32
2022/09/28 05:55:13;;;;;;;4.40;2.80;;;;;;;;;;106525;1298;33978;-34
2022/09/28 05:57:42;;;;;;;5.00;2.90;;;;;;;;;;106497;1297;33971;-34
2022/09/28 06:00:12;;;;;;;5.10;2.70;;;;;;;;;;106478;1298;33945;-34
2022/09/28 06:02:43;;;;;;;5.30;2.90;;;;;;;;;;106511;1298;33938;-34
2022/09/28 06:05:12;;;;;;;5.30;3.10;;;;;;;;;;106503;1295;163225;-34
2022/09/28 06:07:44;;;;;;;5.60;3.10;;;;;;;;;;106663;1295;33562;-33
2022/09/28 06:10:14;;;;;;;4.60;2.60;;;;;;;;;;106637;1295;33961;-34
2022/09/28 06:12:43;;;;;;;4.50;2.90;;;;;;;;;;106559;1297;33809;-33
2022/09/28 06:15:13;;;;;;;5.00;3.00;;;;;;;;;;106507;1299;33202;-34
2022/09/28 06:17:42;;;;;;;5.40;3.00;;;;;;;;;;106520;1298;33990;-34
2022/09/28 06:20:12;;;;;;;4.50;2.90;;;;;;;;;;106528;1296;33846;-33
2022/09/28 06:22:41;;;;;;;6.40;2.90;;;;;;;;;;106534;1300;33486;-34
2022/09/28 06:25:10;;;;;;;5.40;2.80;;;;;;;;;;106701;1295;34184;-34
2022/09/28 06:27:41;;;;;;;7.40;3.40;;;;;;;;;;106662;1295;34239;-33
2022/09/28 06:30:14;;;;;;;6.20;2.90;;;;;;;;;;106692;1295;35328;-34
2022/09/28 06:32:43;;;;;;;6.30;3.10;;;;;;;;;;106632;1295;34377;-34
2022/09/28 06:35:14;;;;;;;5.50;2.90;;;;;;;;;;106464;1301;33549;-35
2022/09/28 06:37:45;;;;;;;5.20;2.70;;;;;;;;;;106511;1301;33325;-35
2022/09/28 06:40:15;;;;;;;5.20;3.00;;;;;;;;;;106546;1298;33604;-34
2022/09/28 06:42:44;;;;;;;5.10;2.90;;;;;;;;;;106496;1298;33853;-35
2022/09/28 06:45:13;;;;;;;6.00;2.80;;;;;;;;;;106689;1295;33827;-35
2022/09/28 06:47:42;;;;;;;5.50;3.10;;;;;;;;;;106686;1295;33874;-35
2022/09/28 06:50:13;;;;;;;5.20;2.80;;;;;;;;;;106601;1295;33809;-37
2022/09/28 06:52:44;;;;;;;6.50;3.00;;;;;;;;;;106619;1298;33602;-35
2022/09/28 06:55:13;;;;;;;5.60;3.20;;;;;;;;;;106473;1301;33772;-34
2022/09/28 06:57:44;;;;;;;5.60;3.00;;;;;;;;;;106343;1301;33329;-33
2022/09/28 07:00:18;;;;;;;6.10;3.10;;;;;;;;;;106491;1298;34131;-34
2022/09/28 07:02:48;;;;;;;5.40;2.90;;;;;;;;;;106495;1299;33558;-35
2022/09/28 07:05:25;;;;;;;5.90;3.10;;;;;;;;;;106597;1296;46004;-35
2022/09/28 07:07:55;;;;;;;6.10;3.20;;;;;;;;;;106630;1295;33740;-35
2022/09/28 07:10:26;;;;;;;5.70;3.30;;;;;;;;;;106640;1295;33070;-34
2022/09/28 07:12:56;;;;;;;5.50;3.10;;;;;;;;;;106660;1295;33858;-35
2022/09/28 07:15:26;;;;;;;7.30;3.20;;;;;;;;;;106413;1298;33354;-34
2022/09/28 07:17:58;;;;;;;5.20;3.40;;;;;;;;;;106390;1297;34530;-35
2022/09/28 07:20:27;;;;;;;5.20;3.00;;;;;;;;;;106360;1301;33327;-34
2022/09/28 07:23:00;;;;;;;5.40;3.10;;;;;;;;;;106479;1298;33835;-35
2022/09/28 07:25:30;;;;;;;5.70;3.30;;;;;;;;;;106554;1300;33893;-35
2022/09/28 07:28:00;;;;;;;5.70;3.30;;;;;;;;;;106594;1295;33847;-35
2022/09/28 07:30:31;;;;;;;6.00;3.30;;;;;;;;;;106458;1299;34144;-34
2022/09/28 07:33:04;;;;;;;5.60;3.10;;;;;;;;;;106468;1293;33572;-34
2022/09/28 07:35:34;;;;;;;5.70;3.30;;;;;;;;;;106555;1295;34044;-35
2022/09/28 07:38:05;;;;;;;4.90;3.10;;;;;;;;;;106555;1300;33519;-38
2022/09/28 07:43:22;;;;;;;5.60;3.10;;;;;;;;;;106581;1295;34139;-37
2022/09/28 07:45:52;;;;;;;5.40;3.10;;;;;;;;;;106580;1295;33796;-38
2022/09/28 07:48:22;;;;;;;5.50;3.30;;;;;;;;;;106612;1300;33447;-35
2022/09/28 07:50:52;;;;;;;5.30;3.30;;;;;;;;;;106633;1291;34333;-34
2022/09/28 07:53:22;;;;;;;4.80;3.20;;;;;;;;;;106639;1295;34208;-35
2022/09/28 07:55:54;;;;;;;5.20;3.30;;;;;;;;;;106502;1298;33191;-35
2022/09/28 07:58:23;;;;;;;5.10;3.30;;;;;;;;;;106536;1295;33887;-34
2022/09/28 08:00:52;;;;;;;4.50;3.20;;;;;;;;;;106602;1300;33386;-35
2022/09/28 08:03:21;;;;;;;5.40;3.30;;;;;;;;;;106461;1302;33704;-34
2022/09/28 08:05:50;;;;;;;4.90;3.30;;;;;;;;;;106573;1303;34083;-34
2022/09/28 08:08:19;;;;;;;5.50;3.60;;;;;;;;;;106587;1295;33079;-33
2022/09/28 08:10:51;;;;;;;5.20;3.50;;;;;;;;;;106619;1295;34085;-34
2022/09/28 08:13:22;;;;;;;5.70;3.70;;;;;;;;;;106639;1295;34744;-34
2022/09/28 08:15:51;;;;;;;5.60;3.50;;;;;;;;;;106488;1295;34637;-34
2022/09/28 08:18:20;;;;;;;4.70;3.20;;;;;;;;;;106587;1292;34747;-32
2022/09/28 08:23:38;;;;;;;5.30;3.50;;;;;;;;;;106593;1295;34269;-33
2022/09/28 08:26:08;;;;;;;4.70;3.10;;;;;;;;;;106588;1295;34651;-33
2022/09/28 08:28:38;;;;;;;4.70;3.50;;;;;;;;;;106641;1295;34191;-33
2022/09/28 08:31:09;;;;;;;4.80;3.60;;;;;;;;;;106674;1295;33575;-33
2022/09/28 08:33:41;;;;;;;4.30;3.00;;;;;;;;;;106606;1302;33627;-33
2022/09/28 08:36:11;;;;;;;6.10;3.50;;;;;;;;;;106563;1300;32375;-34
2022/09/28 08:38:40;;;;;;;5.90;3.50;;;;;;;;;;106462;1300;33563;-37
2022/09/28 08:41:23;;;;;;;4.90;3.60;;;;;;;;;;106419;1298;33992;-34
2022/09/28 08:43:57;;;;;;;4.60;3.30;;;;;;;;;;106306;1298;33824;-35
2022/09/28 08:46:32;;;;;;;5.70;3.40;;;;;;;;;;106502;1298;34711;-33
2022/09/28 08:49:05;;;;;;;4.70;3.50;;;;;;;;;;106541;1297;34502;-33
2022/09/28 08:51:37;;;;;;;5.70;3.20;;;;;;;;;;106397;1298;34223;-34
2022/09/28 08:54:10;;;;;;;4.70;2.90;;;;;;;;;;106604;1296;34128;-34
2022/09/28 08:56:44;;;;;;;5.30;3.30;;;;;;;;;;106591;1301;33479;-34
2022/09/28 08:59:15;;;;;;;4.90;3.20;;;;;;;;;;106647;1301;33460;-35
2022/09/28 09:01:48;;;;;;;6.20;3.10;;;;;;;;;;106613;1301;33591;-36
2022/09/28 09:04:17;;;;;;;6.40;3.30;;;;;;;;;;106643;1295;34114;-38
2022/09/28 09:06:55;;;;;;;5.00;3.20;;;;;;;;;;106646;1301;33728;-37
2022/09/28 09:09:31;;;;;;;5.10;3.00;;;;;;;;;;106699;1303;33105;-36
2022/09/28 09:12:04;;;;;;;5.30;2.70;;;;;;;;;;106639;1296;34213;-38
2022/09/28 09:14:59;;;;;;;4.30;2.80;;;;;;;;;;106673;1295;34110;-38
2022/09/28 09:17:33;;;;;;;5.30;3.10;;;;;;;;;;106191;1301;34514;-36
2022/09/28 09:20:06;;;;;;;4.20;2.90;;;;;;;;;;106676;1299;33152;-36
2022/09/28 09:22:39;;;;;;;4.70;2.60;;;;;;;;;;106660;1301;33079;-35
2022/09/28 09:25:17;;;;;;;5.80;2.90;;;;;;;;;;106565;1295;33653;-36
2022/09/28 09:27:55;;;;;;;4.80;2.90;;;;;;;;;;106526;1295;33854;-36
2022/09/28 09:30:25;;;;;;;4.60;3.10;;;;;;;;;;106657;1301;33119;-36
2022/09/28 09:33:06;;;;;;;4.80;2.70;;;;;;;;;;106604;1296;33923;-37
2022/09/28 09:35:52;;;;;;;4.30;3.00;;;;;;;;;;106727;1299;33293;-38
2022/09/28 09:38:32;;;;;;;4.10;2.50;;;;;;;;;;106632;1295;46839;-38
2022/09/28 09:41:07;;;;;;;5.40;2.80;;;;;;;;;;106742;1300;34482;-40
2022/09/28 09:43:57;;;;;;;4.50;2.70;;;;;;;;;;106680;1296;33198;-39
2022/09/28 09:46:34;;;;;;;4.10;2.70;;;;;;;;;;106618;1302;34025;-39
2022/09/28 09:49:06;;;;;;;4.20;2.60;;;;;;;;;;106712;1300;33604;-39
2022/09/28 09:51:39;;;;;;;4.30;2.60;;;;;;;;;;106701;1303;33636;-39
2022/09/28 09:54:13;;;;;;;4.00;2.40;;;;;;;;;;106698;1295;34076;-40
2022/09/28 09:56:45;;;;;;;4.00;2.30;;;;;;;;;;106663;1295;34110;-40
2022/09/28 09:59:21;;;;;;;4.20;2.60;;;;;;;;;;106656;1295;33861;-40
2022/09/28 10:01:52;;;;;;;4.40;2.50;;;;;;;;;;106674;1295;34127;-39
2022/09/28 10:04:23;;;;;;;4.70;2.60;;;;;;;;;;106653;1295;34092;-39
2022/09/28 10:06:57;;;;;;;3.90;2.30;;;;;;;;;;106647;1295;34338;-40
2022/09/28 10:09:28;;;;;;;4.20;2.30;;;;;;;;;;106684;1295;34184;-39
2022/09/28 10:11:58;;;;;;;4.20;2.40;;;;;;;;;;106724;1302;33550;-40
2022/09/28 10:14:29;;;;;;;4.00;2.20;;;;;;;;;;106667;1295;33984;-39
2022/09/28 10:17:01;;;;;;;4.50;2.50;;;;;;;;;;106636;1300;33611;-39
2022/09/28 10:19:32;;;;;;;3.60;2.40;;;;;;;;;;106557;1300;33159;-39
2022/09/28 10:22:04;;;;;;;3.90;2.50;;;;;;;;;;106686;1295;34084;-39
2022/09/28 10:24:34;;;;;;;3.80;2.30;;;;;;;;;;106661;1303;33600;-39
2022/09/28 10:27:13;;;;;;;3.80;2.40;;;;;;;;;;106677;1296;34810;-39
2022/09/28 10:29:46;;;;;;;4.00;2.40;;;;;;;;;;106616;1295;47830;-39
2022/09/28 10:32:22;;;;;;;4.10;2.40;;;;;;;;;;106676;1295;34100;-39
2022/09/28 10:34:53;;;;;;;3.70;2.20;;;;;;;;;;106598;1298;34289;-39
2022/09/28 10:37:23;;;;;;;4.10;2.30;;;;;;;;;;106605;1295;34169;-40
2022/09/28 10:39:53;;;;;;;4.00;2.50;;;;;;;;;;106668;1295;34482;-39
2022/09/28 10:42:25;;;;;;;3.80;2.10;;;;;;;;;;106656;1301;33684;-39
2022/09/28 10:44:56;;;;;;;3.90;2.40;;;;;;;;;;106637;1298;33254;-39
2022/09/28 10:47:26;;;;;;;3.60;2.20;;;;;;;;;;106625;1303;36179;-41
2022/09/28 10:49:56;;;;;;;4.10;2.60;;;;;;;;;;106577;1295;47309;-39
2022/09/28 10:52:32;;;;;;;4.10;2.30;;;;;;;;;;106653;1301;33591;-39
2022/09/28 10:55:02;;;;;;;3.40;2.30;;;;;;;;;;106643;1300;33975;-36
2022/09/28 10:57:33;;;;;;;4.10;2.50;;;;;;;;;;106687;1301;33977;-36
2022/09/28 11:00:05;;;;;;;3.90;2.20;;;;;;;;;;106604;1298;33441;-36
2022/09/28 11:02:36;;;;;;;4.00;2.20;;;;;;;;;;106616;1299;34355;-35
2022/09/28 11:05:06;;;;;;;3.50;2.00;;;;;;;;;;106595;1295;34222;-36
2022/09/28 11:07:44;;;;;;;3.30;2.00;;;;;;;;;;106632;1303;33652;-36
2022/09/28 11:10:19;;;;;;;3.70;2.00;;;;;;;;;;106594;1298;33574;-36
2022/09/28 11:12:49;;;;;;;3.60;2.00;;;;;;;;;;106657;1295;33161;-36
2022/09/28 11:15:19;;;;;;;3.50;2.00;;;;;;;;;;106668;1301;34202;-36
2022/09/28 11:17:49;;;;;;;4.00;2.10;;;;;;;;;;106537;1297;34102;-36
2022/09/28 11:20:34;;;;;;;3.50;1.90;;;;;;;;;;106605;1296;33848;-36
2022/09/28 11:23:16;;;;;;;3.60;2.10;;;;;;;;;;106637;1302;33085;-36
2022/09/28 11:25:57;;;;;;;3.80;2.00;;;;;;;;;;106645;1295;34811;-35
2022/09/28 11:28:31;;;;;;;3.50;2.10;;;;;;;;;;106616;1295;34334;-36
2022/09/28 11:31:01;;;;;;;3.70;2.10;;;;;;;;;;106632;1301;47772;-36
2022/09/28 11:33:32;;;;;;;3.70;2.00;;;;;;;;;;106648;1301;34110;-36
2022/09/28 11:36:11;;;;;;;4.20;2.00;;;;;;;;;;106608;1296;33695;-35
2022/09/28 11:38:48;;;;;;;3.90;1.90;;;;;;;;;;106637;1301;33615;-35
2022/09/28 11:41:23;;;;;;;3.30;1.80;;;;;;;;;;106624;1300;47584;-33
2022/09/28 11:44:03;;;;;;;4.40;2.20;;;;;;;;;;106650;1295;33694;-35
2022/09/28 11:46:34;;;;;;;4.00;1.90;;;;;;;;;;106640;1295;34095;-35
2022/09/28 11:49:07;;;;;;;3.40;1.90;;;;;;;;;;106615;1303;34754;-35
2022/09/28 11:51:41;;;;;;;4.20;2.20;;;;;;;;;;106629;1301;46583;-36
2022/09/28 11:54:14;;;;;;;4.20;2.00;;;;;;;;;;106645;1303;34016;-35
2022/09/28 11:56:45;;;;;;;3.60;2.00;;;;;;;;;;106651;1295;34487;-35
2022/09/28 11:59:18;;;;;;;4.40;2.20;;;;;;;;;;106640;1295;34307;-37
2022/09/28 12:01:50;;;;;;;4.60;2.00;;;;;;;;;;106647;1295;34279;-33
2022/09/28 12:04:21;;;;;;;3.90;1.90;;;;;;;;;;106648;1295;34354;-36
2022/09/28 12:06:52;;;;;;;4.00;2.00;;;;;;;;;;106676;1295;33443;-34
2022/09/28 12:09:25;;;;;;;4.40;1.90;;;;;;;;;;106647;1295;33695;-36
2022/09/28 12:11:56;;;;;;;3.90;2.10;;;;;;;;;;106727;1302;47618;-35
2022/09/28 12:14:27;;;;;;;4.50;2.10;;;;;;;;;;106680;1295;34528;-34
2022/09/28 12:17:00;;;;;;;3.70;2.00;;;;;;;;;;106660;1291;34231;-35
2022/09/28 12:19:33;;;;;;;3.40;1.80;;;;;;;;;;106626;1300;34600;-35
2022/09/28 12:22:04;;;;;;;3.60;2.20;;;;;;;;;;106676;1295;34007;-33
2022/09/28 12:24:36;;;;;;;4.20;2.10;;;;;;;;;;106732;1301;33723;-34
2022/09/28 12:27:07;;;;;;;5.50;2.20;;;;;;;;;;106626;1295;34243;-33
2022/09/28 12:29:40;;;;;;;4.50;2.10;;;;;;;;;;106636;1302;34463;-35
2022/09/28 12:32:16;;;;;;;4.50;2.30;;;;;;;;;;106585;1301;34256;-36
2022/09/28 12:34:45;;;;;;;5.30;2.50;;;;;;;;;;106608;1296;34124;-36
2022/09/28 12:37:40;;;;;;;5.20;2.30;;;;;;;;;;106658;1298;33116;-35
2022/09/28 12:40:22;;;;;;;6.30;2.50;;;;;;;;;;106200;1301;34122;-35
2022/09/28 12:43:05;;;;;;;5.40;2.20;;;;;;;;;;106644;1303;47188;-35
2022/09/28 12:45:40;;;;;;;4.80;2.10;;;;;;;;;;106669;1301;34304;-35
2022/09/28 12:48:26;;;;;;;5.50;2.00;;;;;;;;;;106640;1295;34752;-36
2022/09/28 12:51:04;;;;;;;4.80;2.10;;;;;;;;;;106627;1303;34074;-36
2022/09/28 12:53:39;;;;;;;5.30;2.10;;;;;;;;;;106631;1299;33582;-36
2022/09/28 12:56:12;;;;;;;4.50;2.20;;;;;;;;;;106643;1296;34099;-36
2022/09/28 12:58:49;;;;;;;4.90;2.30;;;;;;;;;;106638;1292;34118;-36
2022/09/28 13:01:34;;;;;;;5.30;2.20;;;;;;;;;;106584;1300;33875;-36
2022/09/28 13:04:11;;;;;;;5.10;2.30;;;;;;;;;;106650;1300;34491;-36
2022/09/28 13:06:54;;;;;;;4.80;2.20;;;;;;;;;;106660;1297;34426;-36
2022/09/28 13:09:22;;;;;;;;;;;;;;;;;;106631;1296;34214;-36
2022/09/28 13:11:59;;;;;;;4.80;1.90;;;;;;;;;;106600;1301;34443;-36
2022/09/28 13:14:40;;;;;;;5.00;2.00;;;;;;;;;;106519;1301;34083;-36
2022/09/28 13:17:15;;;;;;;4.40;1.90;;;;;;;;;;106634;1296;34072;-36
2022/09/28 13:19:49;;;;;;;4.60;1.90;;;;;;;;;;106638;1301;33594;-36
2022/09/28 13:22:26;;;;;;;3.60;1.90;;;;;;;;;;106669;1299;33096;-36
2022/09/28 13:25:01;;;;;;;4.80;2.00;;;;;;;;;;106540;1302;33203;-36
2022/09/28 13:27:34;;;;;;;4.50;2.10;;;;;;;;;;106615;1301;34195;-36
2022/09/28 13:30:06;;;;;;;4.20;2.00;;;;;;;;;;106620;1291;34757;-35
2022/09/28 13:32:37;;;;;;;3.90;2.00;;;;;;;;;;106611;1298;33901;-36
2022/09/28 13:35:13;;;;;;;4.10;1.80;;;;;;;;;;106627;1300;34504;-35
2022/09/28 13:37:42;;;;;;;4.20;2.10;;;;;;;;;;106629;1295;33312;-35
2022/09/28 13:40:16;;;;;;;5.40;2.10;;;;;;;;;;106596;1295;34783;-35
2022/09/28 13:42:53;;;;;;;4.30;1.90;;;;;;;;;;106575;1296;33765;-35
2022/09/28 13:45:39;;;;;;;3.90;1.80;;;;;;;;;;106622;1300;34606;-36
2022/09/28 13:48:13;;;;;;;4.50;2.00;;;;;;;;;;106620;1302;33289;-36
2022/09/28 13:50:57;;;;;;;4.00;1.70;;;;;;;;;;106641;1295;34227;-35
2022/09/28 13:53:30;;;;;;;4.30;2.00;;;;;;;;;;106589;1301;33548;-35
2022/09/28 13:55:58;;;;;;;;;;;;;;;;;;106663;1302;33607;-35
2022/09/28 13:58:30;;;;;;;4.30;1.80;;;;;;;;;;106630;1299;34196;-35
2022/09/28 14:01:07;;;;;;;3.70;1.80;;;;;;;;;;106631;1301;33673;-35
2022/09/28 14:03:52;;;;;;;3.60;1.70;;;;;;;;;;106623;1295;34413;-35
2022/09/28 14:06:23;;;;;;;3.60;1.70;;;;;;;;;;106297;1297;33754;-35
2022/09/28 14:09:06;;;;;;;4.00;1.70;;;;;;;;;;106644;1296;33841;-35
2022/09/28 14:11:43;;;;;;;4.10;1.90;;;;;;;;;;106641;1297;34622;-35
2022/09/28 14:14:26;;;;;;;3.80;1.80;;;;;;;;;;106586;1295;34204;-35
2022/09/28 14:16:54;;;;;;;;;;;;;;;;;;106641;1297;33604;-35
2022/09/28 14:19:25;;;;;;;3.60;1.70;;;;;;;;;;106624;1300;32711;-35
2022/09/28 14:22:04;;;;;;;3.40;1.60;;;;;;;;;;106654;1295;34237;-35
2022/09/28 14:24:44;;;;;;;3.30;1.70;;;;;;;;;;106613;1296;34294;-35
2022/09/28 14:27:27;;;;;;;3.30;1.90;;;;;;;;;;106652;1296;34138;-35
2022/09/28 14:30:07;;;;;;;3.70;2.10;;;;;;;;;;106644;1295;34023;-35
2022/09/28 14:32:37;;;;;;;3.30;1.80;;;;;;;;;;106620;1291;33821;-35
2022/09/28 14:35:14;;;;;;;3.90;1.80;;;;;;;;;;106646;1300;41637;-35
2022/09/28 14:41:09;;;;;;;3.40;1.70;;;;;;;;;;106631;1300;33903;-35
2022/09/28 14:43:57;;;;;;;3.10;1.70;;;;;;;;;;106581;1301;34204;-35
2022/09/28 14:46:37;;;;;;;4.80;1.90;;;;;;;;;;106699;1299;34078;-35
2022/09/28 14:49:28;;;;;;;3.30;1.60;;;;;;;;;;106684;1295;34063;-33
2022/09/28 14:52:04;;;;;;;4.20;1.90;;;;;;;;;;106697;1295;33632;-33
2022/09/28 14:54:41;;;;;;;3.70;1.70;;;;;;;;;;106620;1295;34047;-33
2022/09/28 14:57:15;;;;;;;4.00;1.90;;;;;;;;;;106683;1296;34223;-33
2022/09/28 14:59:47;;;;;;;3.70;1.80;;;;;;;;;;106616;1299;33905;-34
2022/09/28 15:02:24;;;;;;;4.00;1.70;;;;;;;;;;106679;1301;33662;-35
2022/09/28 15:04:55;;;;;;;4.80;2.00;;;;;;;;;;106591;1295;33955;-35
2022/09/28 15:07:26;;;;;;;3.50;1.80;;;;;;;;;;106631;1295;34079;-34
2022/09/28 15:09:56;;;;;;;4.90;2.10;;;;;;;;;;106673;1300;34159;-34
2022/09/28 15:12:30;;;;;;;4.90;1.90;;;;;;;;;;106624;1300;35158;-34
2022/09/28 15:15:01;;;;;;;4.20;1.80;;;;;;;;;;106548;1295;34143;-34